Medenales, New Mexico
Current Conditions -  °F | °C
As of 10:55 AM on Saturday 22 Nov 2014 (Local Time) from KLAM Reporting Station
Clear Clear  
Wind Chill: 42°   Ceiling: Unl
Heat Index: 42°   Visibility: 10mi
Dew Point: 22°   Wind: 3mph
Humidity: 46%   Direction: 120°ESE
Pressure: 30.09"   Gusts: NA
Location:  36.1769°N, 106.184°W
Report Text: KLAM 221755Z AUTO 12003KT 10SM CLR 06/M05 A3009 RMK AO2 T00561053 10056 21015
Loading
Personal Weather Stations






























Interactive Weather Map New forecast layout! Learn more

10-Day Weather Forecast

Advertisements
Track Severe Weather on mobile